createdAt,value
2019-05-21T00:01:25.529Z,83.47
2019-05-21T00:03:51.674Z,83.34
2019-05-21T00:06:17.869Z,82.94
2019-05-21T00:08:44.144Z,83.00
2019-05-21T00:11:11.752Z,82.94
2019-05-21T00:13:38.009Z,82.74
2019-05-21T00:16:04.231Z,82.86
2019-05-21T00:18:30.370Z,83.60
2019-05-21T00:20:56.476Z,83.56
2019-05-21T00:23:22.749Z,83.36
2019-05-21T00:25:49.083Z,83.67
2019-05-21T00:28:28.043Z,83.67
2019-05-21T00:31:31.785Z,84.32
2019-05-21T00:34:43.849Z,84.10
2019-05-21T00:37:41.328Z,84.64
2019-05-21T00:40:45.318Z,84.45
2019-05-21T00:43:11.678Z,85.18
2019-05-21T00:45:38.012Z,85.62
2019-05-21T00:48:05.845Z,85.42
2019-05-21T00:50:32.418Z,85.46
2019-05-21T00:52:58.560Z,85.77
2019-05-21T00:55:24.784Z,85.76
2019-05-21T00:57:50.982Z,85.77
2019-05-21T01:00:17.362Z,85.75
2019-05-21T01:02:43.457Z,85.36
2019-05-21T01:05:09.706Z,85.58
2019-05-21T01:07:35.854Z,85.11
2019-05-21T01:10:06.293Z,85.24
2019-05-21T01:12:32.767Z,85.65
2019-05-21T01:14:59.063Z,85.65
2019-05-21T01:17:25.183Z,86.15
2019-05-21T01:19:51.526Z,86.13
2019-05-21T01:22:17.650Z,86.04
2019-05-21T01:24:43.831Z,85.76
2019-05-21T01:27:10.050Z,85.75
2019-05-21T01:29:36.235Z,86.29
2019-05-21T01:32:02.698Z,86.82
2019-05-21T01:34:29.154Z,86.60
2019-05-21T01:36:55.246Z,86.55
2019-05-21T01:39:22.192Z,86.38
2019-05-21T01:41:48.447Z,86.60
2019-05-21T01:44:14.660Z,86.55
2019-05-21T01:46:40.757Z,86.28
2019-05-21T01:49:08.117Z,86.46
2019-05-21T01:51:34.435Z,86.72
2019-05-21T01:54:00.548Z,86.90
2019-05-21T01:56:26.811Z,86.58
2019-05-21T01:58:53.057Z,86.86
2019-05-21T02:01:19.211Z,86.88
2019-05-21T02:03:45.401Z,86.45
2019-05-21T02:06:11.622Z,86.66
2019-05-21T02:08:37.918Z,86.50
2019-05-21T02:11:04.166Z,86.84
2019-05-21T02:13:30.490Z,87.03
2019-05-21T02:15:56.636Z,87.12
2019-05-21T02:18:22.791Z,86.91
2019-05-21T02:20:49.184Z,86.85
2019-05-21T02:23:16.423Z,87.25
2019-05-21T02:25:42.648Z,87.25
2019-05-21T02:28:09.122Z,87.37
2019-05-21T02:30:35.867Z,87.43
2019-05-21T02:33:02.105Z,87.50
2019-05-21T02:35:28.334Z,87.30
2019-05-21T02:37:54.620Z,87.20
2019-05-21T02:40:21.067Z,87.23
2019-05-21T02:42:47.345Z,87.36
2019-05-21T02:45:14.238Z,87.39
2019-05-21T02:47:40.435Z,87.33
2019-05-21T02:50:07.041Z,87.35
2019-05-21T02:52:33.269Z,87.32
2019-05-21T02:54:59.409Z,87.00
2019-05-21T02:57:41.223Z,87.08
2019-05-21T03:00:30.856Z,86.98
2019-05-21T03:02:58.720Z,87.22
2019-05-21T03:05:24.933Z,87.31
2019-05-21T03:07:51.161Z,87.48
2019-05-21T03:10:17.577Z,87.33
2019-05-21T03:12:43.903Z,87.41
2019-05-21T03:15:10.247Z,87.06
2019-05-21T03:17:36.454Z,87.46
2019-05-21T03:20:09.073Z,87.50
2019-05-21T03:22:35.285Z,87.65
2019-05-21T03:25:02.687Z,87.28
2019-05-21T03:27:29.346Z,87.37
2019-05-21T03:29:55.487Z,87.33
2019-05-21T03:32:21.809Z,87.12
2019-05-21T03:34:49.070Z,87.12
2019-05-21T03:37:15.301Z,87.10
2019-05-21T03:39:41.519Z,87.22
2019-05-21T03:42:07.744Z,86.89
2019-05-21T03:44:33.874Z,86.97
2019-05-21T03:47:00.266Z,87.48
2019-05-21T03:49:26.521Z,87.23
2019-05-21T03:51:52.961Z,87.35
2019-05-21T03:54:19.061Z,87.67
2019-05-21T03:56:45.284Z,87.64
2019-05-21T03:59:11.539Z,87.70
2019-05-21T04:01:37.806Z,87.62
2019-05-21T04:04:04.127Z,87.51
2019-05-21T04:06:30.239Z,87.73
2019-05-21T04:08:56.465Z,87.31
2019-05-21T04:11:22.735Z,87.14
2019-05-21T04:13:48.971Z,86.77
2019-05-21T04:16:26.349Z,86.98
2019-05-21T04:18:57.153Z,86.71
2019-05-21T04:21:24.597Z,86.90
2019-05-21T04:23:50.711Z,87.17
2019-05-21T04:26:16.864Z,87.11
2019-05-21T04:28:42.978Z,87.26
2019-05-21T04:31:09.103Z,86.94
2019-05-21T04:33:35.309Z,87.22
2019-05-21T04:36:01.577Z,86.97
2019-05-21T04:38:27.826Z,87.09
2019-05-21T04:40:53.982Z,87.25
2019-05-21T04:43:20.233Z,87.12
2019-05-21T04:45:46.473Z,87.18
2019-05-21T04:48:12.694Z,87.03
2019-05-21T04:50:39.010Z,86.97
2019-05-21T04:53:05.371Z,86.72
2019-05-21T04:55:31.593Z,86.36
2019-05-21T04:57:57.862Z,86.38
2019-05-21T05:00:24.219Z,86.41
2019-05-21T05:02:50.405Z,86.46
2019-05-21T05:05:16.729Z,86.66
2019-05-21T05:07:43.155Z,86.65
2019-05-21T05:10:09.688Z,86.42
2019-05-21T05:12:35.927Z,86.51
2019-05-21T05:15:04.572Z,86.78
2019-05-21T05:17:30.833Z,87.04
2019-05-21T05:19:57.191Z,87.13
2019-05-21T05:22:23.297Z,86.62
2019-05-21T05:24:49.517Z,86.45
2019-05-21T05:27:15.938Z,86.55
2019-05-21T05:29:42.073Z,86.26
2019-05-21T05:32:08.424Z,86.43
2019-05-21T05:34:34.535Z,86.10
2019-05-21T05:37:01.019Z,86.31
2019-05-21T05:39:27.171Z,86.66
2019-05-21T05:41:53.389Z,86.51
2019-05-21T05:44:19.671Z,86.69
2019-05-21T05:46:45.913Z,86.34
2019-05-21T05:49:16.697Z,86.80
2019-05-21T05:51:42.832Z,86.74
2019-05-21T05:54:09.061Z,87.04
2019-05-21T05:56:35.176Z,86.93
2019-05-21T05:59:01.471Z,86.59
2019-05-21T06:01:29.479Z,86.44
2019-05-21T06:03:55.580Z,86.63
2019-05-21T06:06:21.797Z,86.38
2019-05-21T06:08:48.712Z,86.37
2019-05-21T06:11:14.955Z,86.35
2019-05-21T06:13:41.188Z,86.06
2019-05-21T06:16:07.434Z,86.10
2019-05-21T06:18:35.645Z,85.93
2019-05-21T06:21:01.719Z,86.34
2019-05-21T06:23:28.053Z,86.14
2019-05-21T06:25:54.382Z,86.56
2019-05-21T06:28:20.798Z,86.29
2019-05-21T06:30:47.137Z,86.20
2019-05-21T06:33:13.474Z,86.26
2019-05-21T06:35:40.309Z,85.87
2019-05-21T06:38:17.096Z,85.79
2019-05-21T06:40:38.204Z,86.15
2019-05-21T06:43:02.924Z,85.91
2019-05-21T06:45:29.188Z,85.46
2019-05-21T06:47:55.315Z,85.82
2019-05-21T06:50:21.652Z,86.21
2019-05-21T06:52:47.919Z,86.19
2019-05-21T06:55:14.225Z,85.97
2019-05-21T06:57:40.376Z,85.33
2019-05-21T07:00:07.724Z,85.37
2019-05-21T07:02:34.045Z,85.33
2019-05-21T07:05:00.317Z,85.12
2019-05-21T07:07:26.577Z,85.23
2019-05-21T07:09:52.828Z,84.91
2019-05-21T07:12:19.092Z,85.05
2019-05-21T07:14:45.370Z,85.59
2019-05-21T07:17:11.617Z,85.25
2019-05-21T07:19:37.866Z,84.33
2019-05-21T07:22:12.663Z,84.59
2019-05-21T07:24:32.114Z,84.95
2019-05-21T07:26:58.541Z,84.98
2019-05-21T07:29:24.706Z,85.26
2019-05-21T07:31:51.066Z,85.48
2019-05-21T07:34:17.394Z,85.03
2019-05-21T07:36:43.722Z,84.01
2019-05-21T07:39:10.098Z,84.37
2019-05-21T07:41:36.323Z,84.24
2019-05-21T07:44:02.667Z,83.61
2019-05-21T07:46:28.861Z,83.60
2019-05-21T07:48:55.269Z,83.99
2019-05-21T07:51:21.555Z,84.72
2019-05-21T07:53:47.732Z,84.84
2019-05-21T07:56:14.054Z,84.39
2019-05-21T07:58:40.514Z,83.86
2019-05-21T08:01:06.846Z,83.77
2019-05-21T08:03:33.795Z,83.25
2019-05-21T08:06:00.019Z,84.08
2019-05-21T08:08:26.479Z,82.85
2019-05-21T08:10:53.063Z,83.43
2019-05-21T08:13:19.519Z,83.89
2019-05-21T08:15:46.970Z,83.48
2019-05-21T08:18:13.106Z,83.02
2019-05-21T08:20:39.371Z,83.62
2019-05-21T08:23:05.597Z,83.65
2019-05-21T08:25:32.287Z,84.44
2019-05-21T08:27:58.619Z,83.03
2019-05-21T08:30:25.054Z,83.75
2019-05-21T08:32:51.185Z,83.30
2019-05-21T08:35:17.563Z,83.33
2019-05-21T08:37:43.911Z,84.00
2019-05-21T08:40:10.708Z,83.49
2019-05-21T08:42:36.840Z,83.20
2019-05-21T08:45:08.692Z,83.72
2019-05-21T08:47:35.226Z,83.26
2019-05-21T08:50:04.055Z,83.93
2019-05-21T08:52:30.408Z,83.04
2019-05-21T08:54:56.793Z,83.47
2019-05-21T08:57:23.516Z,83.14
2019-05-21T08:59:49.807Z,83.43
2019-05-21T09:02:16.152Z,84.01
2019-05-21T09:04:48.050Z,83.32
2019-05-21T09:07:10.600Z,84.18
2019-05-21T09:09:49.189Z,84.18
2019-05-21T09:12:05.733Z,83.40
2019-05-21T09:14:32.276Z,83.84
2019-05-21T09:16:58.639Z,84.09
2019-05-21T09:19:24.777Z,84.07
2019-05-21T09:21:50.994Z,84.51
2019-05-21T09:24:17.304Z,84.70
2019-05-21T09:26:43.549Z,85.40
2019-05-21T09:29:09.895Z,85.05
2019-05-21T09:31:36.455Z,85.12
2019-05-21T09:34:05.728Z,85.04
2019-05-21T09:36:32.148Z,85.58
2019-05-21T09:38:58.535Z,85.36
2019-05-21T09:41:24.892Z,85.73
2019-05-21T09:43:51.142Z,85.49
2019-05-21T09:46:17.378Z,85.57
2019-05-21T09:48:43.649Z,85.63
2019-05-21T09:51:09.877Z,85.89
2019-05-21T09:53:36.014Z,85.88
2019-05-21T09:56:04.349Z,85.95
2019-05-21T09:58:35.321Z,86.45
2019-05-21T10:01:15.369Z,86.12
2019-05-21T10:03:43.687Z,86.29
2019-05-21T10:06:10.388Z,85.86
2019-05-21T10:08:37.367Z,86.37
2019-05-21T10:11:04.624Z,86.93
2019-05-21T10:13:30.962Z,86.92
2019-05-21T10:16:01.260Z,86.96
2019-05-21T10:18:25.386Z,86.74
2019-05-21T10:20:51.763Z,87.16
2019-05-21T10:23:18.019Z,86.96
2019-05-21T10:25:44.388Z,86.73
2019-05-21T10:28:10.777Z,86.66
2019-05-21T10:30:37.119Z,87.03
2019-05-21T10:33:03.512Z,86.40
2019-05-21T10:35:29.914Z,86.85
2019-05-21T10:37:56.121Z,86.72
2019-05-21T10:40:22.701Z,86.79
2019-05-21T10:42:48.859Z,87.14
2019-05-21T10:45:15.596Z,87.07
2019-05-21T10:47:42.017Z,86.83
2019-05-21T10:50:09.666Z,86.99
2019-05-21T10:52:35.939Z,87.36
2019-05-21T10:55:04.090Z,87.29
2019-05-21T10:57:30.560Z,87.46
2019-05-21T10:59:56.699Z,87.42
2019-05-21T11:02:24.748Z,87.42
2019-05-21T11:04:53.093Z,87.36
2019-05-21T11:07:19.658Z,86.99
2019-05-21T11:09:46.038Z,87.58
2019-05-21T11:12:12.368Z,87.80
2019-05-21T11:14:38.691Z,87.61
2019-05-21T11:17:06.939Z,87.39
2019-05-21T11:19:33.309Z,87.34
2019-05-21T11:21:59.671Z,86.85
2019-05-21T11:24:25.994Z,86.91
2019-05-21T11:26:52.330Z,86.65
2019-05-21T11:29:18.551Z,87.05
2019-05-21T11:31:56.340Z,87.68
2019-05-21T11:34:13.038Z,87.60
2019-05-21T11:36:39.256Z,87.79
2019-05-21T11:39:06.957Z,87.72
2019-05-21T11:41:33.058Z,88.08
2019-05-21T11:43:59.314Z,87.76
2019-05-21T11:46:25.558Z,87.54
2019-05-21T11:48:51.685Z,86.85
2019-05-21T11:51:17.927Z,87.15
2019-05-21T11:53:44.288Z,87.23
2019-05-21T11:56:10.595Z,87.06
2019-05-21T11:58:39.812Z,87.28
2019-05-21T12:01:05.297Z,87.47
2019-05-21T12:03:31.453Z,87.42
2019-05-21T12:05:57.753Z,87.73
2019-05-21T12:08:24.027Z,87.99
2019-05-21T12:10:50.263Z,87.71
2019-05-21T12:13:20.580Z,87.73
2019-05-21T12:15:46.785Z,87.89
2019-05-21T12:18:13.253Z,87.83
2019-05-21T12:20:39.499Z,88.15
2019-05-21T12:23:06.012Z,88.31
2019-05-21T12:25:32.201Z,88.36
2019-05-21T12:27:58.354Z,88.42
2019-05-21T12:30:24.729Z,88.79
2019-05-21T12:32:51.060Z,88.80
2019-05-21T12:35:17.477Z,88.59
2019-05-21T12:37:43.614Z,88.06
2019-05-21T12:40:11.253Z,87.77
2019-05-21T12:42:37.409Z,87.73
2019-05-21T12:45:07.087Z,87.78
2019-05-21T12:47:33.460Z,88.01
2019-05-21T12:50:00.998Z,87.77
2019-05-21T12:52:27.324Z,87.61
2019-05-21T12:54:53.623Z,87.50
2019-05-21T12:57:19.841Z,87.22
2019-05-21T12:59:46.254Z,87.55
2019-05-21T13:02:12.525Z,87.25
2019-05-21T13:04:38.753Z,87.06
2019-05-21T13:07:05.279Z,87.23
2019-05-21T13:09:33.136Z,86.79
2019-05-21T13:11:59.404Z,86.69
2019-05-21T13:14:25.712Z,86.54
2019-05-21T13:16:52.001Z,85.53
2019-05-21T13:19:18.293Z,86.13
2019-05-21T13:21:44.629Z,85.64
2019-05-21T13:24:10.763Z,86.44
2019-05-21T13:26:36.922Z,86.79
2019-05-21T13:29:03.239Z,86.12
2019-05-21T13:31:29.616Z,86.61
2019-05-21T13:33:55.666Z,85.97
2019-05-21T13:36:22.484Z,86.30
2019-05-21T13:38:48.709Z,86.36
2019-05-21T13:41:15.065Z,86.20
2019-05-21T13:43:42.384Z,85.79
2019-05-21T13:46:08.638Z,86.18
2019-05-21T13:48:34.977Z,85.73
2019-05-21T13:51:01.588Z,86.05
2019-05-21T13:53:27.886Z,85.69
2019-05-21T13:55:54.045Z,85.43
2019-05-21T13:58:20.376Z,85.83
2019-05-21T14:00:48.687Z,85.93
2019-05-21T14:03:15.171Z,85.63
2019-05-21T14:05:41.503Z,85.83
2019-05-21T14:08:07.896Z,85.48
2019-05-21T14:10:34.459Z,85.15
2019-05-21T14:13:01.244Z,84.84
2019-05-21T14:15:27.684Z,84.86
2019-05-21T14:17:54.133Z,84.98
2019-05-21T14:20:20.580Z,84.77
2019-05-21T14:22:46.892Z,84.83
2019-05-21T14:25:13.485Z,84.48
2019-05-21T14:27:44.879Z,84.24
2019-05-21T14:30:08.604Z,84.16
2019-05-21T14:32:34.965Z,84.64
2019-05-21T14:35:02.442Z,83.37
2019-05-21T14:37:28.712Z,84.47
2019-05-21T14:39:55.078Z,83.98
2019-05-21T14:42:21.436Z,83.15
2019-05-21T14:44:48.041Z,82.65
2019-05-21T14:47:14.130Z,82.10
2019-05-21T14:49:40.407Z,82.34
2019-05-21T14:52:06.798Z,82.14
2019-05-21T14:54:33.230Z,82.28
2019-05-21T14:56:59.466Z,82.29
2019-05-21T14:59:25.733Z,81.89
2019-05-21T15:01:52.098Z,82.67
2019-05-21T15:04:18.548Z,81.87
2019-05-21T15:06:45.225Z,81.27
2019-05-21T15:09:11.439Z,82.34
2019-05-21T15:11:37.645Z,81.75
2019-05-21T15:14:03.969Z,81.86
2019-05-21T15:16:31.233Z,81.15
2019-05-21T15:18:57.495Z,82.10
2019-05-21T15:21:25.716Z,81.06
2019-05-21T15:23:52.573Z,82.08
2019-05-21T15:26:18.946Z,80.73
2019-05-21T15:28:45.305Z,79.80
2019-05-21T15:31:11.574Z,79.84
2019-05-21T15:33:37.882Z,80.32
2019-05-21T15:36:04.127Z,79.44
2019-05-21T15:38:48.592Z,80.25
2019-05-21T15:41:10.119Z,79.79
2019-05-21T15:43:27.087Z,78.61
2019-05-21T15:45:53.480Z,79.10
2019-05-21T15:48:19.882Z,78.11
2019-05-21T15:50:46.293Z,80.32
2019-05-21T15:53:12.809Z,79.18
2019-05-21T15:55:40.186Z,79.83
2019-05-21T15:58:06.668Z,79.71
2019-05-21T16:00:33.676Z,79.90
2019-05-21T16:03:00.411Z,78.34
2019-05-21T16:05:26.670Z,79.08
2019-05-21T16:07:53.329Z,78.75
2019-05-21T16:10:19.750Z,79.50
2019-05-21T16:12:46.057Z,79.79
2019-05-21T16:15:12.528Z,79.23
2019-05-21T16:17:38.753Z,79.85
2019-05-21T16:20:08.717Z,78.94
2019-05-21T16:22:35.128Z,79.70
2019-05-21T16:25:02.325Z,78.75
2019-05-21T16:27:28.571Z,78.99
2019-05-21T16:29:54.897Z,78.23
2019-05-21T16:32:21.165Z,78.69
2019-05-21T16:34:47.530Z,78.71
2019-05-21T16:37:14.505Z,79.17
2019-05-21T16:39:40.911Z,78.70
2019-05-21T16:42:07.354Z,77.83
2019-05-21T16:44:33.609Z,78.57
2019-05-21T16:46:59.858Z,79.05
2019-05-21T16:49:26.355Z,78.86
2019-05-21T16:51:52.828Z,79.41
2019-05-21T16:54:19.068Z,78.79
2019-05-21T16:56:45.417Z,78.80
2019-05-21T16:59:11.718Z,78.54
2019-05-21T17:01:38.339Z,78.50
2019-05-21T17:04:04.650Z,78.59
2019-05-21T17:06:30.920Z,77.92
2019-05-21T17:08:57.207Z,78.59
2019-05-21T17:11:23.544Z,78.19
2019-05-21T17:13:49.901Z,78.88
2019-05-21T17:16:16.179Z,78.20
2019-05-21T17:18:42.523Z,78.26
2019-05-21T17:21:08.888Z,77.72
2019-05-21T17:23:35.343Z,79.11
2019-05-21T17:26:01.813Z,78.12
2019-05-21T17:28:28.200Z,78.43
2019-05-21T17:30:54.641Z,77.94
2019-05-21T17:33:21.150Z,77.91
2019-05-21T17:35:47.399Z,77.87
2019-05-21T17:38:13.829Z,78.46
2019-05-21T17:40:40.304Z,78.27
2019-05-21T17:43:06.858Z,78.06
2019-05-21T17:45:33.338Z,78.17
2019-05-21T17:47:59.635Z,78.51
2019-05-21T17:50:26.085Z,78.34
2019-05-21T17:52:53.154Z,79.22
2019-05-21T17:55:19.425Z,78.73
2019-05-21T17:57:46.135Z,78.88
2019-05-21T18:00:14.451Z,78.99
2019-05-21T18:02:41.211Z,78.63
2019-05-21T18:05:08.618Z,79.81
2019-05-21T18:07:37.772Z,78.95
2019-05-21T18:10:06.598Z,78.84
2019-05-21T18:12:33.652Z,79.04
2019-05-21T18:15:00.705Z,78.47
2019-05-21T18:17:28.561Z,78.37
2019-05-21T18:19:56.486Z,78.61
2019-05-21T18:22:24.134Z,79.44
2019-05-21T18:24:50.575Z,79.23
2019-05-21T18:27:17.066Z,79.63
2019-05-21T18:29:43.233Z,79.05
2019-05-21T18:32:09.579Z,79.12
2019-05-21T18:34:36.850Z,78.97
2019-05-21T18:37:03.443Z,78.94
2019-05-21T18:39:30.874Z,79.21
2019-05-21T18:41:57.221Z,79.21
2019-05-21T18:44:23.559Z,79.41
2019-05-21T18:46:49.924Z,79.17
2019-05-21T18:49:17.170Z,79.12
2019-05-21T18:51:43.516Z,79.33
2019-05-21T18:54:09.742Z,79.26
2019-05-21T18:56:36.231Z,79.36
2019-05-21T18:59:03.207Z,79.21
2019-05-21T19:01:29.858Z,79.34
2019-05-21T19:03:56.119Z,79.65
2019-05-21T19:06:22.581Z,79.49
2019-05-21T19:08:49.101Z,79.74
2019-05-21T19:11:15.665Z,79.69
2019-05-21T19:13:42.109Z,79.80
2019-05-21T19:16:08.386Z,79.96
2019-05-21T19:18:34.747Z,79.54
2019-05-21T19:21:01.026Z,79.49
2019-05-21T19:23:27.560Z,79.68
2019-05-21T19:25:53.993Z,79.89
2019-05-21T19:28:20.286Z,79.87
2019-05-21T19:30:46.585Z,80.10
2019-05-21T19:33:13.412Z,80.32
2019-05-21T19:35:39.977Z,79.81
2019-05-21T19:38:06.361Z,80.33
2019-05-21T19:40:32.777Z,79.89
2019-05-21T19:42:59.119Z,80.53
2019-05-21T19:45:25.542Z,80.53
2019-05-21T19:47:51.947Z,80.34
2019-05-21T19:50:18.713Z,80.55
2019-05-21T19:52:45.084Z,80.55
2019-05-21T19:55:13.211Z,80.15
2019-05-21T19:57:41.538Z,79.96
2019-05-21T20:00:08.448Z,80.28
2019-05-21T20:02:36.197Z,80.36
2019-05-21T20:05:04.462Z,80.36
2019-05-21T20:07:31.232Z,80.08
2019-05-21T20:09:58.568Z,79.97
2019-05-21T20:12:25.188Z,80.16
2019-05-21T20:14:51.519Z,80.62
2019-05-21T20:17:18.603Z,80.74
2019-05-21T20:19:46.889Z,80.47
2019-05-21T20:22:14.888Z,80.37
2019-05-21T20:24:41.217Z,80.71
2019-05-21T20:27:08.076Z,80.25
2019-05-21T20:29:34.462Z,80.25
2019-05-21T20:32:00.880Z,80.71
2019-05-21T20:34:28.023Z,80.61
2019-05-21T20:36:55.094Z,80.86
2019-05-21T20:39:22.363Z,81.14
2019-05-21T20:41:49.036Z,81.04
2019-05-21T20:44:15.355Z,80.78
2019-05-21T20:46:42.194Z,80.61
2019-05-21T20:49:09.462Z,80.93
2019-05-21T20:51:36.696Z,81.17
2019-05-21T20:54:05.349Z,81.08
2019-05-21T20:56:33.122Z,81.21
2019-05-21T20:58:59.466Z,81.18
2019-05-21T21:01:26.657Z,81.18
2019-05-21T21:03:53.006Z,81.46
2019-05-21T21:06:34.178Z,81.85
2019-05-21T21:08:49.160Z,81.85
2019-05-21T21:11:17.456Z,81.65
2019-05-21T21:13:44.381Z,81.65
2019-05-21T21:16:11.248Z,81.33
2019-05-21T21:18:39.114Z,81.33
2019-05-21T21:21:05.712Z,80.99
2019-05-21T21:23:32.149Z,80.99
2019-05-21T21:25:59.221Z,80.94
2019-05-21T21:28:25.753Z,80.78
2019-05-21T21:30:53.109Z,81.38
2019-05-21T21:33:19.566Z,81.45
2019-05-21T21:35:46.045Z,81.75
2019-05-21T21:38:14.191Z,81.85
2019-05-21T21:40:40.908Z,81.75
2019-05-21T21:43:08.131Z,81.42
2019-05-21T21:45:36.495Z,81.66
2019-05-21T21:48:02.837Z,81.73
2019-05-21T21:50:32.155Z,81.64
2019-05-21T21:52:58.659Z,81.64
2019-05-21T21:55:25.002Z,81.47
2019-05-21T21:57:51.264Z,81.63
2019-05-21T22:00:54.542Z,81.44
2019-05-21T22:03:22.725Z,81.44
2019-05-21T22:05:50.036Z,81.39
2019-05-21T22:08:17.156Z,81.39
2019-05-21T22:10:45.783Z,81.74
2019-05-21T22:13:12.536Z,81.56
2019-05-21T22:15:39.361Z,81.56
2019-05-21T22:18:05.575Z,81.82
2019-05-21T22:20:32.023Z,81.81
2019-05-21T22:22:58.460Z,82.08
2019-05-21T22:25:25.027Z,81.53
2019-05-21T22:27:51.230Z,81.53
2019-05-21T22:30:19.143Z,81.92
2019-05-21T22:32:45.464Z,81.81
2019-05-21T22:35:12.616Z,82.29
2019-05-21T22:37:39.001Z,82.54
2019-05-21T22:40:06.057Z,82.23
2019-05-21T22:42:33.007Z,82.23
2019-05-21T22:45:07.915Z,82.41
2019-05-21T22:47:29.190Z,82.41
2019-05-21T22:49:55.518Z,82.53
2019-05-21T22:52:21.771Z,82.77
2019-05-21T22:54:47.900Z,82.80
2019-05-21T22:57:14.227Z,82.80
2019-05-21T22:59:40.457Z,83.29
2019-05-21T23:02:08.672Z,83.79
2019-05-21T23:04:34.812Z,83.80
2019-05-21T23:07:03.831Z,83.79
2019-05-21T23:09:30.305Z,83.75
2019-05-21T23:11:56.691Z,83.84
2019-05-21T23:14:23.046Z,83.72
2019-05-21T23:16:50.274Z,84.39
2019-05-21T23:19:24.119Z,84.45
2019-05-21T23:21:52.025Z,84.43
2019-05-21T23:24:20.461Z,84.34
2019-05-21T23:26:46.777Z,84.32
2019-05-21T23:29:13.154Z,84.51
2019-05-21T23:31:39.445Z,84.65
2019-05-21T23:34:05.642Z,84.48
2019-05-21T23:36:32.098Z,84.16
2019-05-21T23:38:58.813Z,84.51
2019-05-21T23:41:26.196Z,84.21
2019-05-21T23:43:53.022Z,84.38
2019-05-21T23:46:19.550Z,84.18
2019-05-21T23:48:45.958Z,84.07
2019-05-21T23:51:12.164Z,84.44
2019-05-21T23:53:38.389Z,84.32
2019-05-21T23:56:04.626Z,84.40
2019-05-21T23:58:31.552Z,84.58
